Time;durP1;ratioP1;P1;durP2;ratioP2;P2;SDS_P1;SDS_P2;PMS_P1;PMS_P2;Temp;Humidity;BMP_temperature;BMP_pressure;BME280_temperature;BME280_humidity;BME280_pressure;Samples;Min_cycle;Max_cycle;Signal;HPM_P1;HPM_P2
2021/03/31 00:00:48;;;;;;;;;12.00;8.50;;;;;;;;5066418;27;114037;-72
2021/03/31 00:03:15;;;;;;;;;7.00;6.00;;;;;;;;5068164;27;111884;-73
2021/03/31 00:05:41;;;;;;;;;10.25;10.00;;;;;;;;5069721;27;113709;-73
2021/03/31 00:08:07;;;;;;;;;11.00;11.00;;;;;;;;5065713;27;111984;-73
2021/03/31 00:10:34;;;;;;;;;7.25;6.50;;;;;;;;5068877;27;113419;-73
2021/03/31 00:13:00;;;;;;;;;10.50;9.50;;;;;;;;5066351;27;114131;-73
2021/03/31 00:15:26;;;;;;;;;11.25;9.25;;;;;;;;5072148;27;112748;-73
2021/03/31 00:17:53;;;;;;;;;12.75;10.75;;;;;;;;5069329;27;113618;-73
2021/03/31 00:20:20;;;;;;;;;6.50;6.50;;;;;;;;5067085;27;114251;-72
2021/03/31 00:22:46;;;;;;;;;9.25;8.50;;;;;;;;5066719;27;112024;-73
2021/03/31 00:25:13;;;;;;;;;9.00;6.25;;;;;;;;5068927;27;114087;-74
2021/03/31 00:27:39;;;;;;;;;9.25;6.75;;;;;;;;5068924;27;114094;-72
2021/03/31 00:30:06;;;;;;;;;7.00;7.00;;;;;;;;5069326;27;113816;-72
2021/03/31 00:32:32;;;;;;;;;8.00;6.00;;;;;;;;5065342;27;115117;-73
2021/03/31 00:34:59;;;;;;;;;8.50;8.50;;;;;;;;5067641;27;112437;-72
2021/03/31 00:37:25;;;;;;;;;10.00;9.00;;;;;;;;5067475;27;113609;-73
2021/03/31 00:39:51;;;;;;;;;10.00;8.75;;;;;;;;5068640;27;113165;-73
2021/03/31 00:42:17;;;;;;;;;10.50;9.00;;;;;;;;5068231;27;112633;-73
2021/03/31 00:44:43;;;;;;;;;9.00;9.00;;;;;;;;5065581;27;113375;-73
2021/03/31 00:47:09;;;;;;;;;9.00;7.50;;;;;;;;5067764;27;114310;-73
2021/03/31 00:49:35;;;;;;;;;8.50;8.50;;;;;;;;5069706;27;112594;-73
2021/03/31 00:52:02;;;;;;;;;9.50;8.50;;;;;;;;5067931;27;113943;-73
2021/03/31 00:54:28;;;;;;;;;9.50;8.00;;;;;;;;5065524;27;112528;-71
2021/03/31 00:56:55;;;;;;;;;10.25;10.00;;;;;;;;5067645;27;114427;-73
2021/03/31 00:59:21;;;;;;;;;12.00;11.25;;;;;;;;5072427;27;114386;-72
2021/03/31 01:01:47;;;;;;;;;8.25;8.25;;;;;;;;5067835;27;112162;-72
2021/03/31 01:04:13;;;;;;;;;11.25;9.75;;;;;;;;5065109;27;114238;-74
2021/03/31 01:06:39;;;;;;;;;10.50;10.00;;;;;;;;5070317;27;114915;-72
2021/03/31 01:09:07;;;;;;;;;10.75;9.50;;;;;;;;5068359;27;112006;-71
2021/03/31 01:11:35;;;;;;;;;10.25;10.25;;;;;;;;5070320;27;113978;-75
2021/03/31 01:14:05;;;;;;;;;7.50;7.50;;;;;;;;5067897;27;112407;-74
2021/03/31 01:16:38;;;;;;;;;12.00;12.00;;;;;;;;5068200;27;114427;-73
2021/03/31 01:19:10;;;;;;;;;11.75;10.25;;;;;;;;5063128;27;113425;-74
2021/03/31 01:22:02;;;;;;;;;12.50;10.00;;;;;;;;5071760;27;111894;-75
2021/03/31 01:24:47;;;;;;;;;13.75;13.00;;;;;;;;5070167;27;113692;-74
2021/03/31 01:27:17;;;;;;;;;13.00;12.00;;;;;;;;5066354;27;114639;-74
2021/03/31 01:29:52;;;;;;;;;11.25;11.00;;;;;;;;5071042;27;112018;-74
2021/03/31 01:32:30;;;;;;;;;16.50;12.50;;;;;;;;5071748;27;114011;-74
2021/03/31 01:34:59;;;;;;;;;15.75;12.00;;;;;;;;5069339;27;112111;-75
2021/03/31 01:37:29;;;;;;;;;13.00;12.00;;;;;;;;5070047;27;113835;-76
2021/03/31 01:39:56;;;;;;;;;11.50;10.25;;;;;;;;5069192;27;114158;-75
2021/03/31 01:42:22;;;;;;;;;11.00;11.00;;;;;;;;5069351;27;112184;-74
2021/03/31 01:44:52;;;;;;;;;11.50;11.50;;;;;;;;5070921;27;113413;-74
2021/03/31 01:47:18;;;;;;;;;12.00;11.00;;;;;;;;5067346;27;114277;-74
2021/03/31 01:49:44;;;;;;;;;11.00;10.00;;;;;;;;5071343;27;111827;-74
2021/03/31 01:52:12;;;;;;;;;11.00;9.00;;;;;;;;5067639;27;113543;-74
2021/03/31 01:54:42;;;;;;;;;9.75;9.00;;;;;;;;5074459;27;114117;-75
2021/03/31 01:57:09;;;;;;;;;10.00;8.75;;;;;;;;5068078;27;114620;-74
2021/03/31 01:59:36;;;;;;;;;12.75;10.00;;;;;;;;5070797;27;114113;-74
2021/03/31 02:02:03;;;;;;;;;10.75;9.75;;;;;;;;5068017;27;112982;-75
2021/03/31 02:04:31;;;;;;;;;9.50;8.50;;;;;;;;5070732;27;114074;-74
2021/03/31 02:06:57;;;;;;;;;9.25;9.25;;;;;;;;5067694;27;114292;-74
2021/03/31 02:09:25;;;;;;;;;10.00;8.00;;;;;;;;5069854;27;111868;-74
2021/03/31 02:11:52;;;;;;;;;9.75;8.00;;;;;;;;5069647;27;113404;-73
2021/03/31 02:14:19;;;;;;;;;9.00;8.50;;;;;;;;5068222;27;114036;-74
2021/03/31 02:16:46;;;;;;;;;9.00;9.00;;;;;;;;5074424;27;112329;-73
2021/03/31 02:19:13;;;;;;;;;10.00;9.00;;;;;;;;5066572;27;114174;-73
2021/03/31 02:21:41;;;;;;;;;9.75;8.50;;;;;;;;5071488;27;111840;-74
2021/03/31 02:24:07;;;;;;;;;8.75;8.00;;;;;;;;5066838;27;113887;-74
2021/03/31 02:26:34;;;;;;;;;9.25;9.00;;;;;;;;5069935;27;114231;-74
2021/03/31 02:29:00;;;;;;;;;10.00;8.00;;;;;;;;5067978;27;111957;-73
2021/03/31 02:31:26;;;;;;;;;10.50;10.00;;;;;;;;5069037;27;113937;-73
2021/03/31 02:33:54;;;;;;;;;10.00;9.25;;;;;;;;5069011;27;114283;-73
2021/03/31 02:36:20;;;;;;;;;9.25;8.00;;;;;;;;5068421;27;111891;-73
2021/03/31 02:38:47;;;;;;;;;11.25;11.25;;;;;;;;5072810;27;114468;-73
2021/03/31 02:41:14;;;;;;;;;9.50;8.75;;;;;;;;5067688;27;112030;-74
2021/03/31 02:43:43;;;;;;;;;11.25;9.75;;;;;;;;5070967;27;113387;-74
2021/03/31 02:46:10;;;;;;;;;11.00;8.00;;;;;;;;5066179;27;114185;-75
2021/03/31 02:48:36;;;;;;;;;8.75;8.75;;;;;;;;5066855;27;112992;-74
2021/03/31 02:51:04;;;;;;;;;8.00;7.50;;;;;;;;5070852;27;113476;-74
2021/03/31 02:53:30;;;;;;;;;8.75;8.00;;;;;;;;5066668;27;115120;-74
2021/03/31 02:55:57;;;;;;;;;12.25;10.50;;;;;;;;5068995;27;112835;-73
2021/03/31 02:58:24;;;;;;;;;9.75;9.75;;;;;;;;5069007;27;114163;-73
2021/03/31 03:00:51;;;;;;;;;10.00;10.00;;;;;;;;5071518;27;114212;-73
2021/03/31 03:03:18;;;;;;;;;15.00;11.50;;;;;;;;5069312;27;113899;-73
2021/03/31 03:05:44;;;;;;;;;8.00;7.00;;;;;;;;5066922;27;114282;-73
2021/03/31 03:08:11;;;;;;;;;10.00;10.00;;;;;;;;5070046;27;111911;-73
2021/03/31 03:10:37;;;;;;;;;11.50;10.00;;;;;;;;5067444;27;114083;-74
2021/03/31 03:13:03;;;;;;;;;16.50;12.00;;;;;;;;5069265;27;114127;-74
2021/03/31 03:15:30;;;;;;;;;12.00;10.50;;;;;;;;5067345;27;111911;-74
2021/03/31 03:17:57;;;;;;;;;8.75;7.25;;;;;;;;5068632;27;113548;-73
2021/03/31 03:20:24;;;;;;;;;13.50;10.75;;;;;;;;5067503;27;114544;-74
2021/03/31 03:22:51;;;;;;;;;10.50;9.00;;;;;;;;5071651;27;111845;-72
2021/03/31 03:25:18;;;;;;;;;9.75;9.00;;;;;;;;5068373;27;113966;-73
2021/03/31 03:27:45;;;;;;;;;8.50;8.50;;;;;;;;5067149;27;111901;-73
2021/03/31 03:30:12;;;;;;;;;7.50;7.50;;;;;;;;5069555;27;113476;-71
2021/03/31 03:32:40;;;;;;;;;8.00;8.00;;;;;;;;5059331;27;113446;-74
2021/03/31 03:35:08;;;;;;;;;9.25;7.00;;;;;;;;5065623;27;112298;-73
2021/03/31 03:37:34;;;;;;;;;8.25;7.00;;;;;;;;5069725;27;113796;-74
2021/03/31 03:40:01;;;;;;;;;9.25;7.75;;;;;;;;5065554;27;114145;-74
2021/03/31 03:42:27;;;;;;;;;7.75;6.50;;;;;;;;5072902;27;111911;-73
2021/03/31 03:44:53;;;;;;;;;9.00;7.25;;;;;;;;5067314;27;114179;-73
2021/03/31 03:47:20;;;;;;;;;7.00;7.00;;;;;;;;5067236;27;112026;-73
2021/03/31 03:49:45;;;;;;;;;8.00;8.00;;;;;;;;5073211;27;113445;-74
2021/03/31 03:52:13;;;;;;;;;8.50;7.00;;;;;;;;5065944;27;113624;-73
2021/03/31 03:54:39;;;;;;;;;8.50;8.50;;;;;;;;5070011;27;112275;-73
2021/03/31 03:57:05;;;;;;;;;7.25;7.25;;;;;;;;5065987;27;113383;-72
2021/03/31 03:59:31;;;;;;;;;7.00;6.00;;;;;;;;5068834;27;114064;-73
2021/03/31 04:01:57;;;;;;;;;8.25;8.25;;;;;;;;5068022;27;112367;-73
2021/03/31 04:04:23;;;;;;;;;8.00;8.00;;;;;;;;5073339;27;113407;-75
2021/03/31 04:06:50;;;;;;;;;8.00;5.50;;;;;;;;5067269;27;112421;-75
2021/03/31 04:09:16;;;;;;;;;9.00;7.00;;;;;;;;5072648;27;112399;-75
2021/03/31 04:11:43;;;;;;;;;9.25;9.25;;;;;;;;5065764;27;114352;-74
2021/03/31 04:14:10;;;;;;;;;9.75;9.50;;;;;;;;5069271;27;112164;-74
2021/03/31 04:16:36;;;;;;;;;10.75;9.75;;;;;;;;5069598;27;116189;-74
2021/03/31 04:19:03;;;;;;;;;10.00;9.00;;;;;;;;5068917;27;114468;-73
2021/03/31 04:21:30;;;;;;;;;11.25;9.75;;;;;;;;5066826;27;111818;-75
2021/03/31 04:23:57;;;;;;;;;10.50;9.50;;;;;;;;5070677;27;113818;-73
2021/03/31 04:26:24;;;;;;;;;9.75;9.75;;;;;;;;5074989;27;114154;-73
2021/03/31 04:28:51;;;;;;;;;8.25;8.25;;;;;;;;5072263;27;113668;-73
2021/03/31 04:31:19;;;;;;;;;8.75;8.25;;;;;;;;5070132;27;114369;-73
2021/03/31 04:33:45;;;;;;;;;7.75;7.25;;;;;;;;5073203;27;111835;-73
2021/03/31 04:36:11;;;;;;;;;8.00;8.00;;;;;;;;5069465;27;113679;-73
2021/03/31 04:38:43;;;;;;;;;11.25;9.00;;;;;;;;5072757;27;114012;-72
2021/03/31 04:41:10;;;;;;;;;9.00;9.00;;;;;;;;5065526;27;111909;-73
2021/03/31 04:43:37;;;;;;;;;8.75;8.75;;;;;;;;5065558;27;113654;-73
2021/03/31 04:46:04;;;;;;;;;8.00;8.00;;;;;;;;5065127;27;114308;-74
2021/03/31 04:48:30;;;;;;;;;8.00;8.00;;;;;;;;5071671;27;112145;-74
2021/03/31 04:50:56;;;;;;;;;11.00;8.25;;;;;;;;5066749;27;113993;-74
2021/03/31 04:53:22;;;;;;;;;8.50;8.00;;;;;;;;5066215;27;111896;-74
2021/03/31 04:55:48;;;;;;;;;14.25;11.25;;;;;;;;5061661;27;112489;-74
2021/03/31 04:58:14;;;;;;;;;7.75;7.50;;;;;;;;5067870;27;114237;-74
2021/03/31 05:00:41;;;;;;;;;9.25;8.00;;;;;;;;5068886;27;112275;-74
2021/03/31 05:03:08;;;;;;;;;10.00;10.00;;;;;;;;5065055;27;113544;-73
2021/03/31 05:05:34;;;;;;;;;10.00;7.00;;;;;;;;5072420;27;115062;-74
2021/03/31 05:08:00;;;;;;;;;8.00;8.00;;;;;;;;5072460;27;113075;-73
2021/03/31 05:10:26;;;;;;;;;9.75;9.00;;;;;;;;5071544;27;112603;-74
2021/03/31 05:12:52;;;;;;;;;11.25;9.00;;;;;;;;5068940;27;111846;-74
2021/03/31 05:15:19;;;;;;;;;10.00;9.50;;;;;;;;5072631;27;113387;-73
2021/03/31 05:17:45;;;;;;;;;9.00;9.00;;;;;;;;5071291;27;114110;-71
2021/03/31 05:20:12;;;;;;;;;9.75;8.75;;;;;;;;5069372;27;112028;-72
2021/03/31 05:22:38;;;;;;;;;10.00;10.00;;;;;;;;5064840;27;113746;-72
2021/03/31 05:25:04;;;;;;;;;12.33;9.33;;;;;;;;5071252;27;113834;-72
2021/03/31 05:27:32;;;;;;;;;16.00;12.33;;;;;;;;5069494;27;112084;-71
2021/03/31 05:29:58;;;;;;;;;14.00;12.67;;;;;;;;5075575;27;114142;-72
2021/03/31 05:32:24;;;;;;;;;10.50;10.50;;;;;;;;5075529;27;111961;-74
2021/03/31 05:34:50;;;;;;;;;12.67;12.00;;;;;;;;5066891;27;113288;-75
2021/03/31 05:37:16;;;;;;;;;10.25;10.00;;;;;;;;5065079;27;114276;-73
2021/03/31 05:39:42;;;;;;;;;12.00;10.00;;;;;;;;5068665;27;112270;-74
2021/03/31 05:42:09;;;;;;;;;14.00;12.00;;;;;;;;5064911;27;113673;-74
2021/03/31 05:44:35;;;;;;;;;10.00;9.25;;;;;;;;5067439;27;114109;-72
2021/03/31 05:47:02;;;;;;;;;9.25;9.25;;;;;;;;5065636;27;112039;-76
2021/03/31 05:49:29;;;;;;;;;11.75;11.75;;;;;;;;5067902;27;112369;-77
2021/03/31 05:51:56;;;;;;;;;13.33;13.00;;;;;;;;5069084;27;114066;-77
2021/03/31 05:54:22;;;;;;;;;12.33;9.00;;;;;;;;5066070;27;114036;-75
2021/03/31 05:56:50;;;;;;;;;18.67;17.67;;;;;;;;5071586;27;114863;-77
2021/03/31 05:59:17;;;;;;;;;12.25;11.75;;;;;;;;5072785;27;113649;-77
2021/03/31 06:01:44;;;;;;;;;13.25;13.00;;;;;;;;5068770;27;113598;-75
2021/03/31 06:04:10;;;;;;;;;13.00;9.00;;;;;;;;5064028;27;112913;-78
2021/03/31 06:06:36;;;;;;;;;13.50;9.00;;;;;;;;5071390;27;111984;-78
2021/03/31 06:09:07;;;;;;;;;12.50;9.50;;;;;;;;5068719;27;113372;-76
2021/03/31 06:11:45;;;;;;;;;11.25;11.25;;;;;;;;5070289;27;114393;-75
2021/03/31 06:14:11;;;;;;;;;12.25;10.00;;;;;;;;5071737;27;112013;-76
2021/03/31 06:16:42;;;;;;;;;10.50;9.00;;;;;;;;5067586;27;114285;-78
2021/03/31 06:19:15;;;;;;;;;9.00;9.00;;;;;;;;5071744;27;112012;-71
2021/03/31 06:21:42;;;;;;;;;12.00;12.00;;;;;;;;5068482;27;113588;-70
2021/03/31 06:24:20;;;;;;;;;7.75;7.50;;;;;;;;5074491;27;114682;-70
2021/03/31 06:26:46;;;;;;;;;10.25;9.75;;;;;;;;5067459;27;113609;-71
2021/03/31 06:29:12;;;;;;;;;10.25;8.00;;;;;;;;5069088;27;113415;-68
2021/03/31 06:31:39;;;;;;;;;11.25;11.25;;;;;;;;5069476;27;113831;-69
2021/03/31 06:34:06;;;;;;;;;13.50;10.50;;;;;;;;5055397;27;112013;-69
2021/03/31 06:36:36;;;;;;;;;13.67;12.00;;;;;;;;5072507;27;113567;-70
2021/03/31 06:39:17;;;;;;;;;15.33;13.33;;;;;;;;5066652;27;113461;-73
2021/03/31 06:41:50;;;;;;;;;16.67;12.33;;;;;;;;5066555;27;113631;-71
2021/03/31 06:44:19;;;;;;;;;15.33;14.33;;;;;;;;5067325;27;114143;-70
2021/03/31 06:46:51;;;;;;;;;14.00;13.00;;;;;;;;5070557;27;113455;-70
2021/03/31 06:49:17;;;;;;;;;20.33;17.67;;;;;;;;5068261;27;113758;-69
2021/03/31 06:51:43;;;;;;;;;18.67;17.00;;;;;;;;5065638;27;114020;-70
2021/03/31 06:54:13;;;;;;;;;16.00;15.33;;;;;;;;5067487;27;111895;-77
2021/03/31 06:56:40;;;;;;;;;15.67;14.00;;;;;;;;5065107;27;113900;-70
2021/03/31 06:59:06;;;;;;;;;17.33;15.67;;;;;;;;5070328;27;114383;-71
2021/03/31 07:01:33;;;;;;;;;21.00;16.33;;;;;;;;5067853;27;113573;-71
2021/03/31 07:04:01;;;;;;;;;17.33;15.00;;;;;;;;5067550;27;114577;-71
2021/03/31 07:06:27;;;;;;;;;20.67;18.67;;;;;;;;5067571;27;112730;-71
2021/03/31 07:08:53;;;;;;;;;18.67;16.00;;;;;;;;5062304;27;114162;-72
2021/03/31 07:11:35;;;;;;;;;27.33;18.67;;;;;;;;5064910;27;113907;-73
2021/03/31 07:14:02;;;;;;;;;19.67;18.33;;;;;;;;5062706;27;111952;-73
2021/03/31 07:16:28;;;;;;;;;22.67;18.33;;;;;;;;5067293;27;113557;-72
2021/03/31 07:18:56;;;;;;;;;18.00;14.67;;;;;;;;5065211;27;114148;-72
2021/03/31 07:21:22;;;;;;;;;23.33;22.33;;;;;;;;5070024;27;112389;-71
2021/03/31 07:23:48;;;;;;;;;20.00;16.67;;;;;;;;5068403;27;114082;-71
2021/03/31 07:26:15;;;;;;;;;17.33;17.33;;;;;;;;5066260;27;113469;-71
2021/03/31 07:28:41;;;;;;;;;16.33;14.33;;;;;;;;5068093;27;114021;-71
2021/03/31 07:31:09;;;;;;;;;21.00;16.33;;;;;;;;5066034;27;114029;-70
2021/03/31 07:33:38;;;;;;;;;17.00;15.67;;;;;;;;5068509;27;112565;-71
2021/03/31 07:36:08;;;;;;;;;20.00;19.33;;;;;;;;5070089;27;113731;-72
2021/03/31 07:38:35;;;;;;;;;15.25;15.00;;;;;;;;5069769;27;114185;-72
2021/03/31 07:41:02;;;;;;;;;18.33;16.00;;;;;;;;5070677;27;111989;-70
2021/03/31 07:43:30;;;;;;;;;16.25;14.75;;;;;;;;5063600;27;113631;-68
2021/03/31 07:45:58;;;;;;;;;21.33;16.00;;;;;;;;5066919;27;111965;-72
2021/03/31 07:48:25;;;;;;;;;15.67;13.67;;;;;;;;5066556;27;114045;-72
2021/03/31 07:50:50;;;;;;;;;16.50;16.50;;;;;;;;5065483;27;114049;-72
2021/03/31 07:53:16;;;;;;;;;21.25;17.25;;;;;;;;5059578;27;112358;-70
2021/03/31 07:55:43;;;;;;;;;17.25;15.25;;;;;;;;5064869;27;113482;-72
2021/03/31 07:58:16;;;;;;;;;12.50;12.50;;;;;;;;5066759;27;115571;-71
2021/03/31 08:00:54;;;;;;;;;16.25;14.50;;;;;;;;5070635;27;112329;-70
2021/03/31 08:03:21;;;;;;;;;19.00;15.25;;;;;;;;5069064;27;113543;-72
2021/03/31 08:06:05;;;;;;;;;20.50;17.25;;;;;;;;5067485;27;111979;-72
2021/03/31 08:08:31;;;;;;;;;17.00;15.00;;;;;;;;5069479;27;113565;-72
2021/03/31 08:10:57;;;;;;;;;15.50;15.25;;;;;;;;5069165;27;112639;-73
2021/03/31 08:13:27;;;;;;;;;18.25;14.75;;;;;;;;5065380;27;111948;-70
2021/03/31 08:15:53;;;;;;;;;16.75;14.00;;;;;;;;5066734;27;113683;-69
2021/03/31 08:18:20;;;;;;;;;17.00;16.00;;;;;;;;5063825;27;114276;-72
2021/03/31 08:20:46;;;;;;;;;15.75;15.75;;;;;;;;5068358;27;112396;-73
2021/03/31 08:23:12;;;;;;;;;22.75;20.25;;;;;;;;5065139;27;113245;-75
2021/03/31 08:25:39;;;;;;;;;15.50;15.00;;;;;;;;5070118;27;113976;-73
2021/03/31 08:28:05;;;;;;;;;13.00;11.50;;;;;;;;5069434;27;113554;-71
2021/03/31 08:30:33;;;;;;;;;19.50;17.25;;;;;;;;5054256;27;113481;-74
2021/03/31 08:32:59;;;;;;;;;14.50;12.00;;;;;;;;5066487;27;113174;-71
2021/03/31 08:35:26;;;;;;;;;12.00;11.00;;;;;;;;5066770;27;114233;-72
2021/03/31 08:37:53;;;;;;;;;15.00;13.00;;;;;;;;5065198;27;114107;-72
2021/03/31 08:40:20;;;;;;;;;10.75;8.00;;;;;;;;5065660;27;114046;-70
2021/03/31 08:42:47;;;;;;;;;11.00;11.00;;;;;;;;5067320;27;113449;-71
2021/03/31 08:45:21;;;;;;;;;10.50;8.25;;;;;;;;5068545;27;114357;-71
2021/03/31 08:47:47;;;;;;;;;8.75;8.00;;;;;;;;5068709;27;112161;-72
2021/03/31 08:50:14;;;;;;;;;9.00;8.00;;;;;;;;5063789;27;113897;-71
2021/03/31 08:52:40;;;;;;;;;10.00;9.00;;;;;;;;5060437;27;111917;-73
2021/03/31 08:55:08;;;;;;;;;8.75;8.50;;;;;;;;5067525;27;114602;-72
2021/03/31 08:57:35;;;;;;;;;8.00;7.00;;;;;;;;5058347;27;112957;-71
2021/03/31 09:00:02;;;;;;;;;9.00;9.00;;;;;;;;5060810;27;113310;-69
2021/03/31 09:02:28;;;;;;;;;9.67;9.00;;;;;;;;5063163;27;113497;-70
2021/03/31 09:04:55;;;;;;;;;8.33;8.33;;;;;;;;5064082;27;114035;-72
2021/03/31 09:07:21;;;;;;;;;8.67;6.67;;;;;;;;5064599;27;112385;-69
2021/03/31 09:09:48;;;;;;;;;10.00;9.00;;;;;;;;5067659;27;114578;-69
2021/03/31 09:12:15;;;;;;;;;9.00;8.00;;;;;;;;5061827;27;112315;-70
2021/03/31 09:14:43;;;;;;;;;10.33;9.33;;;;;;;;5063417;27;113636;-73
2021/03/31 09:17:10;;;;;;;;;11.67;10.33;;;;;;;;5059218;27;113153;-72
2021/03/31 09:19:37;;;;;;;;;9.67;9.67;;;;;;;;5066417;27;111902;-72
2021/03/31 09:22:07;;;;;;;;;8.67;8.67;;;;;;;;5063673;27;113477;-85
2021/03/31 09:24:33;;;;;;;;;7.67;7.67;;;;;;;;5065777;27;114339;-74
2021/03/31 09:27:00;;;;;;;;;9.67;8.67;;;;;;;;5064438;27;112203;-75
2021/03/31 09:29:26;;;;;;;;;10.00;9.00;;;;;;;;5065428;27;113756;-73
2021/03/31 09:31:54;;;;;;;;;10.33;9.00;;;;;;;;5063883;27;114068;-79
2021/03/31 09:34:21;;;;;;;;;8.00;7.00;;;;;;;;5064403;27;114091;-82
2021/03/31 09:36:57;;;;;;;;;8.67;7.33;;;;;;;;5066522;27;114076;-76
2021/03/31 09:39:23;;;;;;;;;8.67;8.00;;;;;;;;5064702;27;111881;-75
2021/03/31 09:41:49;;;;;;;;;7.33;7.33;;;;;;;;5070787;27;113443;-75
2021/03/31 09:44:15;;;;;;;;;9.33;8.33;;;;;;;;5064597;27;114086;-75
2021/03/31 09:46:41;;;;;;;;;6.00;6.00;;;;;;;;5067201;27;111921;-75
2021/03/31 09:49:08;;;;;;;;;8.00;8.00;;;;;;;;5069649;27;114742;-74
2021/03/31 09:51:34;;;;;;;;;8.33;8.33;;;;;;;;5073408;27;114476;-76
2021/03/31 09:54:00;;;;;;;;;11.33;10.00;;;;;;;;5065369;27;113750;-72
2021/03/31 09:56:27;;;;;;;;;9.00;9.00;;;;;;;;5071427;27;114217;-74
2021/03/31 09:58:53;;;;;;;;;40.33;35.33;;;;;;;;5068508;27;113907;-72
2021/03/31 10:01:20;;;;;;;;;27.67;25.33;;;;;;;;5068444;27;113563;-73
2021/03/31 10:03:46;;;;;;;;;14.67;12.00;;;;;;;;5066616;27;114244;-71
2021/03/31 10:06:17;;;;;;;;;11.00;10.00;;;;;;;;5061814;27;112642;-72
2021/03/31 10:08:44;;;;;;;;;11.33;11.33;;;;;;;;5070731;27;113660;-70
2021/03/31 10:11:23;;;;;;;;;12.00;9.67;;;;;;;;5067989;27;114258;-70
2021/03/31 10:13:49;;;;;;;;;11.67;11.33;;;;;;;;5071693;27;112497;-71
2021/03/31 10:16:16;;;;;;;;;11.67;11.33;;;;;;;;5066189;27;114058;-73
2021/03/31 10:18:42;;;;;;;;;14.67;12.67;;;;;;;;5069430;27;113054;-72
2021/03/31 10:21:08;;;;;;;;;8.75;8.00;;;;;;;;5065366;27;113281;-71
2021/03/31 10:23:36;;;;;;;;;7.00;6.75;;;;;;;;5069276;27;114079;-70
2021/03/31 10:26:18;;;;;;;;;5.00;5.00;;;;;;;;5068160;27;114300;-71
2021/03/31 10:28:44;;;;;;;;;5.67;5.67;;;;;;;;5065055;27;113503;-70
2021/03/31 10:31:17;;;;;;;;;8.00;8.00;;;;;;;;5068818;27;114501;-70
2021/03/31 10:33:43;;;;;;;;;11.33;10.00;;;;;;;;5071847;27;112011;-75
2021/03/31 10:36:09;;;;;;;;;4.00;3.00;;;;;;;;5068923;27;114101;-69
2021/03/31 10:38:40;;;;;;;;;5.67;4.00;;;;;;;;5065594;27;113306;-83
2021/03/31 10:49:31;;;;;;;;;4.67;3.00;;;;;;;;5066368;27;113362;-78
2021/03/31 10:51:59;;;;;;;;;2.67;2.67;;;;;;;;5065680;27;114405;-82
2021/03/31 10:54:27;;;;;;;;;5.33;4.00;;;;;;;;5074273;27;112597;-82
2021/03/31 10:57:04;;;;;;;;;4.00;4.00;;;;;;;;5061949;27;112703;-76
2021/03/31 10:59:30;;;;;;;;;3.00;3.00;;;;;;;;5075169;27;113323;-76
2021/03/31 11:01:56;;;;;;;;;5.67;5.67;;;;;;;;5072173;27;113866;-75
2021/03/31 11:04:22;;;;;;;;;3.00;3.00;;;;;;;;5065405;27;116452;-76
2021/03/31 11:06:48;;;;;;;;;6.00;6.00;;;;;;;;5068245;27;112047;-75
2021/03/31 11:09:15;;;;;;;;;4.33;4.00;;;;;;;;5066627;27;113464;-74
2021/03/31 11:11:42;;;;;;;;;3.33;3.33;;;;;;;;5062059;27;113056;-74
2021/03/31 11:14:08;;;;;;;;;4.33;4.33;;;;;;;;5071509;27;112763;-75
2021/03/31 11:16:34;;;;;;;;;4.00;4.00;;;;;;;;5072573;27;113402;-74
2021/03/31 11:19:07;;;;;;;;;3.00;3.00;;;;;;;;5076362;27;114086;-77
2021/03/31 11:27:02;;;;;;;;;5.00;3.33;;;;;;;;5065012;27;112412;-74
2021/03/31 11:29:28;;;;;;;;;6.00;4.00;;;;;;;;5069456;27;113670;-78
2021/03/31 11:31:54;;;;;;;;;5.00;5.00;;;;;;;;5062309;27;112891;-77
2021/03/31 11:34:20;;;;;;;;;4.00;4.00;;;;;;;;5063990;27;112603;-75
2021/03/31 11:36:46;;;;;;;;;5.00;4.00;;;;;;;;5071932;27;113917;-79
2021/03/31 11:39:14;;;;;;;;;5.00;3.00;;;;;;;;5064584;27;114674;-77
2021/03/31 11:41:40;;;;;;;;;4.00;4.00;;;;;;;;5062980;27;112543;-78
2021/03/31 11:44:07;;;;;;;;;2.33;2.33;;;;;;;;5065842;27;115770;-76
2021/03/31 11:46:33;;;;;;;;;4.00;4.00;;;;;;;;5066624;27;113881;-75
2021/03/31 11:49:00;;;;;;;;;4.67;4.67;;;;;;;;5065117;27;113637;-75
2021/03/31 11:51:26;;;;;;;;;5.00;4.00;;;;;;;;5065879;27;114711;-77
2021/03/31 11:53:52;;;;;;;;;5.33;5.00;;;;;;;;5068463;27;112274;-76
2021/03/31 11:56:18;;;;;;;;;5.00;4.00;;;;;;;;5065013;27;113761;-75
2021/03/31 11:58:44;;;;;;;;;4.33;4.33;;;;;;;;5069439;27;114271;-81
2021/03/31 12:01:11;;;;;;;;;5.00;4.00;;;;;;;;5066062;27;112176;-76
2021/03/31 12:03:37;;;;;;;;;3.67;3.67;;;;;;;;5068457;27;113638;-75
2021/03/31 12:06:03;;;;;;;;;7.25;4.00;;;;;;;;5067249;27;113052;-74
2021/03/31 12:08:30;;;;;;;;;4.25;3.75;;;;;;;;5065576;27;113480;-78
2021/03/31 12:10:56;;;;;;;;;5.25;4.75;;;;;;;;5066350;27;114348;-77
2021/03/31 12:13:22;;;;;;;;;3.00;3.00;;;;;;;;5060005;27;112840;-72
2021/03/31 12:15:48;;;;;;;;;1.00;1.00;;;;;;;;5067802;27;113462;-77
2021/03/31 12:18:15;;;;;;;;;5.00;5.00;;;;;;;;5067833;27;114125;-73
2021/03/31 12:20:41;;;;;;;;;3.25;3.25;;;;;;;;5063182;27;112266;-73
2021/03/31 12:23:07;;;;;;;;;4.25;4.25;;;;;;;;5066282;27;113934;-74
2021/03/31 12:25:34;;;;;;;;;3.00;3.00;;;;;;;;5069988;27;114334;-73
2021/03/31 12:28:01;;;;;;;;;6.00;4.00;;;;;;;;5064890;27;113002;-76
2021/03/31 12:30:27;;;;;;;;;5.50;4.25;;;;;;;;5064431;27;114092;-76
2021/03/31 12:32:54;;;;;;;;;5.75;5.75;;;;;;;;5066748;27;112058;-69
2021/03/31 12:35:21;;;;;;;;;5.75;4.50;;;;;;;;5064094;27;114122;-71
2021/03/31 12:37:47;;;;;;;;;3.75;3.00;;;;;;;;5065809;27;114196;-73
2021/03/31 12:40:13;;;;;;;;;5.00;3.00;;;;;;;;5063561;27;112037;-72
2021/03/31 12:42:41;;;;;;;;;4.75;4.00;;;;;;;;5064379;27;113835;-74
2021/03/31 12:45:07;;;;;;;;;2.25;2.25;;;;;;;;5065964;27;114163;-80
2021/03/31 12:47:34;;;;;;;;;3.00;3.00;;;;;;;;5071295;27;111930;-80
2021/03/31 12:50:00;;;;;;;;;3.75;3.75;;;;;;;;5065429;27;114411;-78
2021/03/31 12:52:30;;;;;;;;;4.50;2.75;;;;;;;;5067561;27;112318;-78
2021/03/31 12:55:00;;;;;;;;;4.25;4.00;;;;;;;;5064976;27;113967;-79
2021/03/31 12:57:26;;;;;;;;;6.00;4.00;;;;;;;;5064845;27;114139;-82
2021/03/31 12:59:53;;;;;;;;;5.00;5.00;;;;;;;;5063958;27;112117;-79
2021/03/31 13:02:19;;;;;;;;;5.50;5.50;;;;;;;;5067042;27;113856;-79
2021/03/31 13:04:45;;;;;;;;;3.00;3.00;;;;;;;;5062465;27;113983;-79
2021/03/31 13:07:12;;;;;;;;;4.00;4.00;;;;;;;;5058820;27;112201;-80
2021/03/31 13:09:39;;;;;;;;;5.00;3.75;;;;;;;;5063810;27;112497;-77
2021/03/31 13:12:17;;;;;;;;;4.75;4.00;;;;;;;;5070342;27;113053;-80
2021/03/31 13:15:15;;;;;;;;;4.00;4.00;;;;;;;;5066167;27;115848;-71
2021/03/31 13:17:52;;;;;;;;;5.00;5.00;;;;;;;;5067260;27;114020;-76
2021/03/31 13:23:05;;;;;;;;;4.75;4.75;;;;;;;;5071877;27;112100;-78
2021/03/31 13:25:35;;;;;;;;;6.00;4.25;;;;;;;;5074702;27;113825;-76
2021/03/31 13:30:51;;;;;;;;;4.00;4.00;;;;;;;;5066452;27;113199;-76
2021/03/31 13:33:19;;;;;;;;;4.25;3.75;;;;;;;;5067569;27;114013;-76
2021/03/31 13:35:52;;;;;;;;;4.00;4.00;;;;;;;;5068425;27;113620;-76
2021/03/31 13:38:25;;;;;;;;;4.00;4.00;;;;;;;;5063816;27;114042;-74
2021/03/31 13:40:52;;;;;;;;;3.75;3.75;;;;;;;;5057908;27;112267;-73
2021/03/31 13:43:18;;;;;;;;;4.25;4.25;;;;;;;;5067156;27;113640;-73
2021/03/31 13:45:44;;;;;;;;;5.75;4.00;;;;;;;;5063608;27;113266;-75
2021/03/31 13:48:12;;;;;;;;;4.00;3.50;;;;;;;;5069655;27;111871;-74
2021/03/31 13:50:39;;;;;;;;;3.00;3.00;;;;;;;;5070614;27;113204;-74
2021/03/31 13:53:05;;;;;;;;;4.00;3.00;;;;;;;;5065646;27;114723;-74
2021/03/31 13:55:33;;;;;;;;;4.50;4.50;;;;;;;;5071868;27;112082;-73
2021/03/31 13:58:02;;;;;;;;;4.75;4.75;;;;;;;;5063411;27;112974;-72
2021/03/31 14:00:28;;;;;;;;;4.75;4.75;;;;;;;;5067572;27;112293;-73
2021/03/31 14:02:56;;;;;;;;;4.00;4.00;;;;;;;;5066004;27;113911;-73
2021/03/31 14:05:22;;;;;;;;;5.00;5.00;;;;;;;;5066406;27;113984;-77
2021/03/31 14:07:48;;;;;;;;;5.25;3.25;;;;;;;;5066633;27;112659;-77
2021/03/31 14:10:15;;;;;;;;;4.25;4.00;;;;;;;;5073671;27;113656;-77
2021/03/31 14:12:42;;;;;;;;;5.00;4.00;;;;;;;;5070457;27;112629;-75
2021/03/31 14:15:10;;;;;;;;;4.50;4.00;;;;;;;;5068784;27;111962;-76
2021/03/31 14:17:36;;;;;;;;;4.50;4.50;;;;;;;;5061301;27;113475;-74
2021/03/31 14:20:07;;;;;;;;;4.25;4.00;;;;;;;;5066867;27;112021;-74
2021/03/31 14:22:33;;;;;;;;;4.00;4.00;;;;;;;;5067522;27;113700;-75
2021/03/31 14:25:00;;;;;;;;;7.00;6.00;;;;;;;;5067124;27;114500;-74
2021/03/31 14:27:26;;;;;;;;;6.25;4.25;;;;;;;;5066450;27;111943;-76
2021/03/31 14:29:52;;;;;;;;;4.00;4.00;;;;;;;;5067697;27;112322;-74
2021/03/31 14:32:19;;;;;;;;;4.00;4.00;;;;;;;;5065566;27;113744;-73
2021/03/31 14:34:46;;;;;;;;;4.25;4.25;;;;;;;;5069167;27;112593;-73
2021/03/31 14:37:12;;;;;;;;;2.75;2.75;;;;;;;;5071724;27;113545;-73
2021/03/31 14:39:39;;;;;;;;;5.50;4.75;;;;;;;;5065904;27;113209;-69
2021/03/31 14:42:06;;;;;;;;;6.50;6.50;;;;;;;;5068101;27;113452;-68